sensor_id;sensor_type;location;lat;lon;timestamp;P1;durP1;ratioP1;P2;durP2;ratioP2
19653;SDS011;9975;48.046;7.804;2022-08-19T02:04:14;16.13;;;13.57;;
19653;SDS011;9975;48.046;7.804;2022-08-19T02:06:39;15.60;;;13.07;;
19653;SDS011;9975;48.046;7.804;2022-08-19T02:09:05;19.73;;;14.47;;
19653;SDS011;9975;48.046;7.804;2022-08-19T02:11:34;18.70;;;13.73;;
19653;SDS011;9975;48.046;7.804;2022-08-19T02:14:02;15.53;;;12.43;;
19653;SDS011;9975;48.046;7.804;2022-08-19T02:16:30;16.70;;;12.73;;
19653;SDS011;9975;48.046;7.804;2022-08-19T02:18:55;15.20;;;12.87;;
19653;SDS011;9975;48.046;7.804;2022-08-19T02:21:22;15.60;;;12.70;;
19653;SDS011;9975;48.046;7.804;2022-08-19T02:23:48;15.30;;;11.73;;
19653;SDS011;9975;48.046;7.804;2022-08-19T02:26:15;20.80;;;13.80;;
19653;SDS011;9975;48.046;7.804;2022-08-19T02:28:41;16.17;;;12.97;;
19653;SDS011;9975;48.046;7.804;2022-08-19T02:31:15;13.50;;;11.77;;
19653;SDS011;9975;48.046;7.804;2022-08-19T02:33:43;13.50;;;12.10;;
19653;SDS011;9975;48.046;7.804;2022-08-19T02:36:10;17.53;;;11.43;;
19653;SDS011;9975;48.046;7.804;2022-08-19T02:38:38;13.73;;;11.47;;
19653;SDS011;9975;48.046;7.804;2022-08-19T02:41:07;13.73;;;10.90;;
19653;SDS011;9975;48.046;7.804;2022-08-19T02:43:36;15.00;;;10.60;;
19653;SDS011;9975;48.046;7.804;2022-08-19T02:46:10;14.57;;;11.80;;
19653;SDS011;9975;48.046;7.804;2022-08-19T02:48:51;14.03;;;10.30;;
19653;SDS011;9975;48.046;7.804;2022-08-19T02:51:18;12.67;;;11.23;;
19653;SDS011;9975;48.046;7.804;2022-08-19T02:53:49;12.57;;;10.53;;
19653;SDS011;9975;48.046;7.804;2022-08-19T02:56:15;12.60;;;10.90;;
19653;SDS011;9975;48.046;7.804;2022-08-19T02:58:42;14.60;;;11.73;;
19653;SDS011;9975;48.046;7.804;2022-08-19T03:01:08;13.90;;;11.80;;
19653;SDS011;9975;48.046;7.804;2022-08-19T03:03:35;13.53;;;10.50;;
19653;SDS011;9975;48.046;7.804;2022-08-19T03:06:05;16.43;;;11.87;;
19653;SDS011;9975;48.046;7.804;2022-08-19T03:08:38;14.57;;;11.17;;
19653;SDS011;9975;48.046;7.804;2022-08-19T03:11:05;12.53;;;11.20;;
19653;SDS011;9975;48.046;7.804;2022-08-19T03:13:31;15.77;;;11.10;;
19653;SDS011;9975;48.046;7.804;2022-08-19T03:15:57;13.20;;;10.67;;
19653;SDS011;9975;48.046;7.804;2022-08-19T03:18:23;13.73;;;10.60;;
19653;SDS011;9975;48.046;7.804;2022-08-19T03:20:50;15.37;;;10.93;;
19653;SDS011;9975;48.046;7.804;2022-08-19T03:23:21;12.83;;;10.97;;
19653;SDS011;9975;48.046;7.804;2022-08-19T03:25:48;11.63;;;10.43;;
19653;SDS011;9975;48.046;7.804;2022-08-19T03:28:15;17.10;;;11.53;;
19653;SDS011;9975;48.046;7.804;2022-08-19T03:30:42;12.30;;;11.00;;
19653;SDS011;9975;48.046;7.804;2022-08-19T03:33:19;16.33;;;11.50;;
19653;SDS011;9975;48.046;7.804;2022-08-19T03:35:45;16.17;;;11.00;;
19653;SDS011;9975;48.046;7.804;2022-08-19T03:38:10;12.73;;;10.20;;
19653;SDS011;9975;48.046;7.804;2022-08-19T03:40:36;14.60;;;11.03;;
19653;SDS011;9975;48.046;7.804;2022-08-19T03:43:02;14.37;;;11.63;;
19653;SDS011;9975;48.046;7.804;2022-08-19T03:45:28;13.90;;;11.30;;
19653;SDS011;9975;48.046;7.804;2022-08-19T03:47:54;14.90;;;12.77;;
19653;SDS011;9975;48.046;7.804;2022-08-19T03:50:20;14.60;;;12.10;;
19653;SDS011;9975;48.046;7.804;2022-08-19T03:52:49;19.70;;;12.77;;
19653;SDS011;9975;48.046;7.804;2022-08-19T03:55:16;14.67;;;11.80;;
19653;SDS011;9975;48.046;7.804;2022-08-19T03:57:42;15.60;;;12.90;;
19653;SDS011;9975;48.046;7.804;2022-08-19T04:00:08;15.37;;;12.80;;
19653;SDS011;9975;48.046;7.804;2022-08-19T04:02:34;17.50;;;13.30;;
19653;SDS011;9975;48.046;7.804;2022-08-19T04:05:00;17.90;;;13.57;;
19653;SDS011;9975;48.046;7.804;2022-08-19T04:07:25;15.20;;;12.43;;
19653;SDS011;9975;48.046;7.804;2022-08-19T04:09:51;17.20;;;12.53;;
19653;SDS011;9975;48.046;7.804;2022-08-19T04:12:17;16.93;;;13.20;;
19653;SDS011;9975;48.046;7.804;2022-08-19T04:14:45;14.87;;;12.80;;
19653;SDS011;9975;48.046;7.804;2022-08-19T04:17:10;17.50;;;12.37;;
19653;SDS011;9975;48.046;7.804;2022-08-19T04:19:38;17.50;;;12.87;;
19653;SDS011;9975;48.046;7.804;2022-08-19T04:22:04;14.20;;;12.17;;
19653;SDS011;9975;48.046;7.804;2022-08-19T04:24:30;16.50;;;13.33;;
19653;SDS011;9975;48.046;7.804;2022-08-19T04:26:56;19.63;;;13.83;;
19653;SDS011;9975;48.046;7.804;2022-08-19T04:29:24;18.10;;;13.83;;
19653;SDS011;9975;48.046;7.804;2022-08-19T04:31:52;19.07;;;14.37;;
19653;SDS011;9975;48.046;7.804;2022-08-19T04:34:20;17.40;;;14.03;;
19653;SDS011;9975;48.046;7.804;2022-08-19T04:36:47;17.40;;;14.10;;
19653;SDS011;9975;48.046;7.804;2022-08-19T04:39:17;15.90;;;12.43;;
19653;SDS011;9975;48.046;7.804;2022-08-19T04:45:23;15.87;;;13.20;;
19653;SDS011;9975;48.046;7.804;2022-08-19T04:47:48;16.30;;;13.40;;
19653;SDS011;9975;48.046;7.804;2022-08-19T04:50:16;19.00;;;12.50;;
19653;SDS011;9975;48.046;7.804;2022-08-19T04:52:41;16.27;;;12.77;;
19653;SDS011;9975;48.046;7.804;2022-08-19T04:55:07;17.93;;;14.03;;
19653;SDS011;9975;48.046;7.804;2022-08-19T04:57:35;21.97;;;13.30;;
19653;SDS011;9975;48.046;7.804;2022-08-19T05:00:05;18.37;;;11.83;;
19653;SDS011;9975;48.046;7.804;2022-08-19T05:02:33;14.97;;;13.37;;
19653;SDS011;9975;48.046;7.804;2022-08-19T05:05:02;16.00;;;12.60;;
19653;SDS011;9975;48.046;7.804;2022-08-19T05:07:28;16.00;;;13.07;;
19653;SDS011;9975;48.046;7.804;2022-08-19T05:09:54;17.20;;;12.93;;
19653;SDS011;9975;48.046;7.804;2022-08-19T05:12:23;18.10;;;14.30;;
19653;SDS011;9975;48.046;7.804;2022-08-19T05:14:49;18.63;;;13.43;;
19653;SDS011;9975;48.046;7.804;2022-08-19T05:17:16;16.57;;;13.30;;
19653;SDS011;9975;48.046;7.804;2022-08-19T05:19:42;17.17;;;14.00;;
19653;SDS011;9975;48.046;7.804;2022-08-19T05:22:26;19.77;;;14.37;;
19653;SDS011;9975;48.046;7.804;2022-08-19T05:25:08;15.70;;;12.23;;
19653;SDS011;9975;48.046;7.804;2022-08-19T05:27:37;17.57;;;13.20;;
19653;SDS011;9975;48.046;7.804;2022-08-19T05:30:03;17.27;;;12.50;;
19653;SDS011;9975;48.046;7.804;2022-08-19T05:32:29;14.03;;;12.07;;
19653;SDS011;9975;48.046;7.804;2022-08-19T05:34:56;17.97;;;14.60;;
19653;SDS011;9975;48.046;7.804;2022-08-19T05:37:21;17.10;;;13.60;;
19653;SDS011;9975;48.046;7.804;2022-08-19T05:39:47;17.13;;;13.00;;
19653;SDS011;9975;48.046;7.804;2022-08-19T05:42:14;15.50;;;13.30;;
19653;SDS011;9975;48.046;7.804;2022-08-19T05:44:41;17.70;;;13.50;;
19653;SDS011;9975;48.046;7.804;2022-08-19T05:47:11;18.07;;;14.70;;
19653;SDS011;9975;48.046;7.804;2022-08-19T05:49:38;21.87;;;14.77;;
19653;SDS011;9975;48.046;7.804;2022-08-19T05:52:04;20.60;;;14.67;;
19653;SDS011;9975;48.046;7.804;2022-08-19T05:54:32;19.17;;;13.47;;
19653;SDS011;9975;48.046;7.804;2022-08-19T05:57:00;26.87;;;14.00;;
19653;SDS011;9975;48.046;7.804;2022-08-19T05:59:26;21.47;;;14.30;;
19653;SDS011;9975;48.046;7.804;2022-08-19T06:01:51;13.70;;;12.13;;
19653;SDS011;9975;48.046;7.804;2022-08-19T06:04:19;18.13;;;13.43;;
19653;SDS011;9975;48.046;7.804;2022-08-19T06:06:49;17.13;;;12.50;;
19653;SDS011;9975;48.046;7.804;2022-08-19T06:09:17;19.23;;;12.80;;
19653;SDS011;9975;48.046;7.804;2022-08-19T06:11:44;15.60;;;12.67;;
19653;SDS011;9975;48.046;7.804;2022-08-19T06:14:13;17.57;;;13.60;;
19653;SDS011;9975;48.046;7.804;2022-08-19T06:16:43;18.10;;;13.60;;
19653;SDS011;9975;48.046;7.804;2022-08-19T06:19:11;15.63;;;12.67;;
19653;SDS011;9975;48.046;7.804;2022-08-19T06:21:40;16.77;;;12.30;;
19653;SDS011;9975;48.046;7.804;2022-08-19T06:24:09;20.37;;;13.73;;
19653;SDS011;9975;48.046;7.804;2022-08-19T06:26:37;19.90;;;12.90;;
19653;SDS011;9975;48.046;7.804;2022-08-19T06:29:06;15.27;;;11.47;;
19653;SDS011;9975;48.046;7.804;2022-08-19T06:31:33;16.57;;;12.17;;
19653;SDS011;9975;48.046;7.804;2022-08-19T06:34:01;13.77;;;11.67;;
19653;SDS011;9975;48.046;7.804;2022-08-19T06:36:31;16.93;;;12.50;;
19653;SDS011;9975;48.046;7.804;2022-08-19T06:39:03;18.87;;;12.97;;
19653;SDS011;9975;48.046;7.804;2022-08-19T06:41:34;17.83;;;12.20;;
19653;SDS011;9975;48.046;7.804;2022-08-19T06:44:02;13.83;;;11.20;;
19653;SDS011;9975;48.046;7.804;2022-08-19T06:46:28;16.47;;;12.47;;
19653;SDS011;9975;48.046;7.804;2022-08-19T06:48:53;13.60;;;10.93;;
19653;SDS011;9975;48.046;7.804;2022-08-19T06:51:20;17.00;;;12.17;;
19653;SDS011;9975;48.046;7.804;2022-08-19T06:53:47;15.07;;;11.60;;
19653;SDS011;9975;48.046;7.804;2022-08-19T06:56:14;13.97;;;11.73;;
19653;SDS011;9975;48.046;7.804;2022-08-19T06:58:42;12.40;;;10.73;;
19653;SDS011;9975;48.046;7.804;2022-08-19T07:01:08;20.37;;;12.30;;
19653;SDS011;9975;48.046;7.804;2022-08-19T07:03:35;17.30;;;12.13;;
19653;SDS011;9975;48.046;7.804;2022-08-19T07:06:05;14.63;;;10.40;;
19653;SDS011;9975;48.046;7.804;2022-08-19T07:08:33;14.03;;;11.33;;
19653;SDS011;9975;48.046;7.804;2022-08-19T07:10:59;13.60;;;10.87;;
19653;SDS011;9975;48.046;7.804;2022-08-19T07:13:25;13.93;;;11.27;;
19653;SDS011;9975;48.046;7.804;2022-08-19T07:15:50;12.83;;;10.03;;
19653;SDS011;9975;48.046;7.804;2022-08-19T07:18:17;15.43;;;12.20;;
19653;SDS011;9975;48.046;7.804;2022-08-19T07:20:44;12.23;;;11.07;;
19653;SDS011;9975;48.046;7.804;2022-08-19T07:23:10;14.63;;;10.60;;
19653;SDS011;9975;48.046;7.804;2022-08-19T07:25:36;16.67;;;10.90;;
19653;SDS011;9975;48.046;7.804;2022-08-19T07:28:02;13.70;;;10.70;;
19653;SDS011;9975;48.046;7.804;2022-08-19T07:30:28;16.93;;;12.07;;
19653;SDS011;9975;48.046;7.804;2022-08-19T07:32:54;11.60;;;10.40;;
19653;SDS011;9975;48.046;7.804;2022-08-19T07:35:21;17.60;;;11.80;;
19653;SDS011;9975;48.046;7.804;2022-08-19T07:37:47;12.13;;;10.03;;
19653;SDS011;9975;48.046;7.804;2022-08-19T07:40:13;20.20;;;11.33;;
19653;SDS011;9975;48.046;7.804;2022-08-19T07:42:39;12.80;;;10.70;;
19653;SDS011;9975;48.046;7.804;2022-08-19T07:45:05;11.80;;;10.47;;
19653;SDS011;9975;48.046;7.804;2022-08-19T07:47:31;13.53;;;10.33;;
19653;SDS011;9975;48.046;7.804;2022-08-19T07:49:57;14.67;;;10.10;;
19653;SDS011;9975;48.046;7.804;2022-08-19T07:52:23;16.30;;;11.70;;
19653;SDS011;9975;48.046;7.804;2022-08-19T07:54:48;11.77;;;9.70;;
19653;SDS011;9975;48.046;7.804;2022-08-19T07:57:15;13.83;;;11.03;;
19653;SDS011;9975;48.046;7.804;2022-08-19T07:59:41;14.80;;;10.93;;
19653;SDS011;9975;48.046;7.804;2022-08-19T08:02:08;15.33;;;11.30;;
19653;SDS011;9975;48.046;7.804;2022-08-19T08:04:34;12.10;;;10.33;;
19653;SDS011;9975;48.046;7.804;2022-08-19T08:07:20;17.90;;;11.67;;
19653;SDS011;9975;48.046;7.804;2022-08-19T08:10:05;15.23;;;10.97;;
19653;SDS011;9975;48.046;7.804;2022-08-19T08:12:33;15.20;;;11.27;;
19653;SDS011;9975;48.046;7.804;2022-08-19T08:15:07;16.07;;;12.77;;
19653;SDS011;9975;48.046;7.804;2022-08-19T08:17:36;12.97;;;11.30;;
19653;SDS011;9975;48.046;7.804;2022-08-19T08:20:04;14.70;;;12.00;;
19653;SDS011;9975;48.046;7.804;2022-08-19T08:22:34;14.77;;;12.33;;
19653;SDS011;9975;48.046;7.804;2022-08-19T08:25:19;14.60;;;10.73;;
19653;SDS011;9975;48.046;7.804;2022-08-19T08:27:47;13.93;;;11.93;;
19653;SDS011;9975;48.046;7.804;2022-08-19T08:30:22;14.90;;;12.00;;
19653;SDS011;9975;48.046;7.804;2022-08-19T08:32:49;15.07;;;11.30;;
19653;SDS011;9975;48.046;7.804;2022-08-19T08:35:18;15.20;;;12.50;;
19653;SDS011;9975;48.046;7.804;2022-08-19T08:37:46;14.70;;;11.90;;
19653;SDS011;9975;48.046;7.804;2022-08-19T08:40:22;14.90;;;12.50;;
19653;SDS011;9975;48.046;7.804;2022-08-19T08:43:40;14.47;;;12.17;;
19653;SDS011;9975;48.046;7.804;2022-08-19T08:45:55;17.20;;;13.47;;
19653;SDS011;9975;48.046;7.804;2022-08-19T08:48:30;17.63;;;14.67;;
19653;SDS011;9975;48.046;7.804;2022-08-19T08:51:15;19.77;;;14.60;;
19653;SDS011;9975;48.046;7.804;2022-08-19T08:53:47;15.30;;;12.77;;
19653;SDS011;9975;48.046;7.804;2022-08-19T08:56:16;17.60;;;13.30;;
19653;SDS011;9975;48.046;7.804;2022-08-19T09:01:17;16.07;;;12.63;;
19653;SDS011;9975;48.046;7.804;2022-08-19T09:03:43;16.00;;;13.50;;
19653;SDS011;9975;48.046;7.804;2022-08-19T09:16:59;18.10;;;12.70;;
19653;SDS011;9975;48.046;7.804;2022-08-19T09:19:28;16.50;;;14.10;;
19653;SDS011;9975;48.046;7.804;2022-08-19T09:24:25;15.90;;;13.70;;
19653;SDS011;9975;48.046;7.804;2022-08-19T09:26:51;15.83;;;12.97;;
19653;SDS011;9975;48.046;7.804;2022-08-19T09:29:17;19.57;;;14.70;;
19653;SDS011;9975;48.046;7.804;2022-08-19T09:31:43;22.13;;;15.80;;
19653;SDS011;9975;48.046;7.804;2022-08-19T09:34:09;18.20;;;15.30;;
19653;SDS011;9975;48.046;7.804;2022-08-19T09:36:34;19.30;;;15.80;;
19653;SDS011;9975;48.046;7.804;2022-08-19T09:39:04;17.17;;;14.00;;
19653;SDS011;9975;48.046;7.804;2022-08-19T09:41:31;16.87;;;14.00;;
19653;SDS011;9975;48.046;7.804;2022-08-19T09:44:06;18.03;;;13.10;;
19653;SDS011;9975;48.046;7.804;2022-08-19T09:46:32;16.93;;;15.03;;
19653;SDS011;9975;48.046;7.804;2022-08-19T09:48:58;19.80;;;15.47;;
19653;SDS011;9975;48.046;7.804;2022-08-19T09:51:25;24.83;;;14.60;;
19653;SDS011;9975;48.046;7.804;2022-08-19T09:53:54;19.00;;;15.83;;
19653;SDS011;9975;48.046;7.804;2022-08-19T09:56:24;17.57;;;14.00;;
19653;SDS011;9975;48.046;7.804;2022-08-19T09:58:49;21.13;;;15.17;;
19653;SDS011;9975;48.046;7.804;2022-08-19T10:01:19;18.90;;;13.73;;
19653;SDS011;9975;48.046;7.804;2022-08-19T10:03:51;18.43;;;15.93;;
19653;SDS011;9975;48.046;7.804;2022-08-19T10:06:20;20.53;;;16.10;;
19653;SDS011;9975;48.046;7.804;2022-08-19T10:08:47;20.10;;;14.80;;
19653;SDS011;9975;48.046;7.804;2022-08-19T10:11:13;16.10;;;13.77;;
19653;SDS011;9975;48.046;7.804;2022-08-19T10:13:43;16.60;;;13.80;;
19653;SDS011;9975;48.046;7.804;2022-08-19T10:16:11;20.07;;;15.77;;
19653;SDS011;9975;48.046;7.804;2022-08-19T10:18:38;19.67;;;14.70;;
19653;SDS011;9975;48.046;7.804;2022-08-19T10:21:17;17.87;;;15.40;;
19653;SDS011;9975;48.046;7.804;2022-08-19T10:23:53;18.37;;;14.37;;
19653;SDS011;9975;48.046;7.804;2022-08-19T10:26:25;15.33;;;13.17;;
19653;SDS011;9975;48.046;7.804;2022-08-19T10:31:24;16.63;;;13.93;;
19653;SDS011;9975;48.046;7.804;2022-08-19T10:33:54;22.80;;;15.83;;
19653;SDS011;9975;48.046;7.804;2022-08-19T10:36:27;19.03;;;15.50;;
19653;SDS011;9975;48.046;7.804;2022-08-19T10:38:57;17.50;;;15.00;;
19653;SDS011;9975;48.046;7.804;2022-08-19T10:41:30;20.07;;;16.03;;
19653;SDS011;9975;48.046;7.804;2022-08-19T10:43:59;19.50;;;16.13;;
19653;SDS011;9975;48.046;7.804;2022-08-19T10:46:26;17.93;;;15.03;;
19653;SDS011;9975;48.046;7.804;2022-08-19T10:48:53;18.33;;;15.00;;
19653;SDS011;9975;48.046;7.804;2022-08-19T10:51:19;19.40;;;15.27;;
19653;SDS011;9975;48.046;7.804;2022-08-19T10:54:05;18.37;;;15.17;;
19653;SDS011;9975;48.046;7.804;2022-08-19T10:56:31;21.97;;;15.53;;
19653;SDS011;9975;48.046;7.804;2022-08-19T10:59:26;20.93;;;17.73;;
19653;SDS011;9975;48.046;7.804;2022-08-19T11:01:54;21.13;;;17.37;;
19653;SDS011;9975;48.046;7.804;2022-08-19T11:04:25;22.73;;;16.30;;
19653;SDS011;9975;48.046;7.804;2022-08-19T11:06:51;21.27;;;17.20;;
19653;SDS011;9975;48.046;7.804;2022-08-19T11:09:18;18.70;;;15.60;;
19653;SDS011;9975;48.046;7.804;2022-08-19T11:11:51;20.90;;;15.60;;
19653;SDS011;9975;48.046;7.804;2022-08-19T11:14:19;19.50;;;16.47;;
19653;SDS011;9975;48.046;7.804;2022-08-19T11:16:46;22.07;;;16.33;;
19653;SDS011;9975;48.046;7.804;2022-08-19T11:19:14;22.93;;;17.57;;
19653;SDS011;9975;48.046;7.804;2022-08-19T11:21:44;21.00;;;14.83;;
19653;SDS011;9975;48.046;7.804;2022-08-19T11:24:13;28.20;;;17.27;;
19653;SDS011;9975;48.046;7.804;2022-08-19T11:26:41;19.23;;;15.53;;
19653;SDS011;9975;48.046;7.804;2022-08-19T11:29:08;24.00;;;16.00;;
19653;SDS011;9975;48.046;7.804;2022-08-19T11:31:39;22.77;;;17.97;;
19653;SDS011;9975;48.046;7.804;2022-08-19T11:34:08;21.93;;;15.53;;
19653;SDS011;9975;48.046;7.804;2022-08-19T11:36:39;21.00;;;16.90;;
19653;SDS011;9975;48.046;7.804;2022-08-19T11:39:08;24.10;;;17.23;;
19653;SDS011;9975;48.046;7.804;2022-08-19T11:41:34;22.03;;;18.17;;
19653;SDS011;9975;48.046;7.804;2022-08-19T11:44:00;20.13;;;15.97;;
19653;SDS011;9975;48.046;7.804;2022-08-19T11:46:28;24.53;;;17.20;;
19653;SDS011;9975;48.046;7.804;2022-08-19T11:48:55;23.33;;;18.90;;
19653;SDS011;9975;48.046;7.804;2022-08-19T11:51:23;22.20;;;16.27;;
19653;SDS011;9975;48.046;7.804;2022-08-19T11:53:51;23.53;;;19.03;;
19653;SDS011;9975;48.046;7.804;2022-08-19T11:56:21;23.83;;;18.23;;
19653;SDS011;9975;48.046;7.804;2022-08-19T11:58:48;22.63;;;17.90;;
19653;SDS011;9975;48.046;7.804;2022-08-19T12:01:15;22.03;;;17.40;;
19653;SDS011;9975;48.046;7.804;2022-08-19T12:03:46;19.60;;;16.53;;
19653;SDS011;9975;48.046;7.804;2022-08-19T12:06:14;19.17;;;17.00;;
19653;SDS011;9975;48.046;7.804;2022-08-19T12:08:42;21.20;;;17.50;;
19653;SDS011;9975;48.046;7.804;2022-08-19T12:11:11;19.30;;;16.70;;
19653;SDS011;9975;48.046;7.804;2022-08-19T12:13:40;18.77;;;16.40;;
19653;SDS011;9975;48.046;7.804;2022-08-19T12:16:14;16.70;;;14.90;;
19653;SDS011;9975;48.046;7.804;2022-08-19T12:18:42;16.10;;;14.40;;
19653;SDS011;9975;48.046;7.804;2022-08-19T12:21:12;20.80;;;16.77;;
19653;SDS011;9975;48.046;7.804;2022-08-19T12:23:39;18.17;;;16.27;;
19653;SDS011;9975;48.046;7.804;2022-08-19T12:26:05;21.40;;;17.03;;
19653;SDS011;9975;48.046;7.804;2022-08-19T12:28:31;19.90;;;15.77;;
19653;SDS011;9975;48.046;7.804;2022-08-19T12:31:00;20.83;;;17.30;;
19653;SDS011;9975;48.046;7.804;2022-08-19T12:33:25;17.43;;;14.43;;
19653;SDS011;9975;48.046;7.804;2022-08-19T12:35:53;17.33;;;14.23;;
19653;SDS011;9975;48.046;7.804;2022-08-19T12:38:19;18.73;;;14.50;;
19653;SDS011;9975;48.046;7.804;2022-08-19T12:40:45;17.87;;;15.97;;
19653;SDS011;9975;48.046;7.804;2022-08-19T12:43:12;16.00;;;14.50;;
19653;SDS011;9975;48.046;7.804;2022-08-19T12:45:40;19.17;;;16.10;;
19653;SDS011;9975;48.046;7.804;2022-08-19T12:48:07;18.80;;;14.70;;
19653;SDS011;9975;48.046;7.804;2022-08-19T12:50:33;18.50;;;16.27;;
19653;SDS011;9975;48.046;7.804;2022-08-19T12:52:58;16.07;;;14.37;;
19653;SDS011;9975;48.046;7.804;2022-08-19T12:55:24;15.37;;;13.77;;
19653;SDS011;9975;48.046;7.804;2022-08-19T12:57:50;14.77;;;13.27;;
19653;SDS011;9975;48.046;7.804;2022-08-19T13:00:17;14.77;;;13.23;;
19653;SDS011;9975;48.046;7.804;2022-08-19T13:02:46;13.50;;;12.20;;
19653;SDS011;9975;48.046;7.804;2022-08-19T13:05:15;13.83;;;12.53;;
19653;SDS011;9975;48.046;7.804;2022-08-19T13:07:44;16.50;;;14.50;;
19653;SDS011;9975;48.046;7.804;2022-08-19T13:10:13;15.60;;;13.53;;
19653;SDS011;9975;48.046;7.804;2022-08-19T13:12:40;14.97;;;13.43;;
19653;SDS011;9975;48.046;7.804;2022-08-19T13:15:06;13.80;;;12.50;;
19653;SDS011;9975;48.046;7.804;2022-08-19T13:17:33;14.13;;;12.93;;
19653;SDS011;9975;48.046;7.804;2022-08-19T13:20:00;13.13;;;11.83;;
19653;SDS011;9975;48.046;7.804;2022-08-19T13:22:26;14.10;;;12.70;;
19653;SDS011;9975;48.046;7.804;2022-08-19T13:24:52;13.57;;;12.17;;
19653;SDS011;9975;48.046;7.804;2022-08-19T13:27:18;15.80;;;13.30;;
19653;SDS011;9975;48.046;7.804;2022-08-19T13:29:43;12.57;;;11.23;;
19653;SDS011;9975;48.046;7.804;2022-08-19T13:32:28;15.13;;;13.73;;
19653;SDS011;9975;48.046;7.804;2022-08-19T13:35:13;15.20;;;11.27;;
19653;SDS011;9975;48.046;7.804;2022-08-19T13:37:38;13.40;;;12.20;;
19653;SDS011;9975;48.046;7.804;2022-08-19T13:40:12;13.70;;;12.50;;
19653;SDS011;9975;48.046;7.804;2022-08-19T13:42:42;14.10;;;12.10;;
19653;SDS011;9975;48.046;7.804;2022-08-19T13:45:09;12.77;;;11.47;;
19653;SDS011;9975;48.046;7.804;2022-08-19T13:47:35;13.23;;;11.83;;
19653;SDS011;9975;48.046;7.804;2022-08-19T13:50:05;13.37;;;12.17;;
19653;SDS011;9975;48.046;7.804;2022-08-19T13:52:31;13.50;;;11.20;;
19653;SDS011;9975;48.046;7.804;2022-08-19T13:54:57;12.37;;;10.83;;
19653;SDS011;9975;48.046;7.804;2022-08-19T13:57:23;12.40;;;11.10;;
19653;SDS011;9975;48.046;7.804;2022-08-19T13:59:48;10.60;;;9.70;;
19653;SDS011;9975;48.046;7.804;2022-08-19T14:02:14;11.57;;;10.23;;
19653;SDS011;9975;48.046;7.804;2022-08-19T14:04:40;10.43;;;9.53;;
19653;SDS011;9975;48.046;7.804;2022-08-19T14:07:06;11.23;;;10.13;;
19653;SDS011;9975;48.046;7.804;2022-08-19T14:09:32;11.37;;;10.37;;
19653;SDS011;9975;48.046;7.804;2022-08-19T14:11:57;12.27;;;10.77;;
19653;SDS011;9975;48.046;7.804;2022-08-19T14:14:23;11.70;;;10.60;;
19653;SDS011;9975;48.046;7.804;2022-08-19T14:16:49;11.43;;;10.17;;
19653;SDS011;9975;48.046;7.804;2022-08-19T14:19:14;11.00;;;9.93;;
19653;SDS011;9975;48.046;7.804;2022-08-19T14:21:41;11.70;;;10.50;;
19653;SDS011;9975;48.046;7.804;2022-08-19T14:24:07;11.17;;;10.27;;
19653;SDS011;9975;48.046;7.804;2022-08-19T14:26:33;12.90;;;10.70;;
19653;SDS011;9975;48.046;7.804;2022-08-19T14:28:59;12.67;;;11.37;;
19653;SDS011;9975;48.046;7.804;2022-08-19T14:31:26;14.50;;;13.00;;
19653;SDS011;9975;48.046;7.804;2022-08-19T14:33:51;14.03;;;11.10;;
19653;SDS011;9975;48.046;7.804;2022-08-19T14:36:17;11.73;;;10.60;;
19653;SDS011;9975;48.046;7.804;2022-08-19T14:38:46;11.40;;;10.30;;
19653;SDS011;9975;48.046;7.804;2022-08-19T14:41:14;13.23;;;12.00;;
19653;SDS011;9975;48.046;7.804;2022-08-19T14:43:49;13.33;;;11.93;;
19653;SDS011;9975;48.046;7.804;2022-08-19T14:46:17;13.60;;;12.30;;
19653;SDS011;9975;48.046;7.804;2022-08-19T14:48:45;14.13;;;12.83;;
19653;SDS011;9975;48.046;7.804;2022-08-19T14:51:12;13.77;;;11.83;;
19653;SDS011;9975;48.046;7.804;2022-08-19T14:53:39;20.30;;;11.63;;
19653;SDS011;9975;48.046;7.804;2022-08-19T14:56:13;17.40;;;12.40;;
19653;SDS011;9975;48.046;7.804;2022-08-19T14:58:40;13.50;;;12.20;;
19653;SDS011;9975;48.046;7.804;2022-08-19T15:01:07;15.80;;;14.10;;
19653;SDS011;9975;48.046;7.804;2022-08-19T15:03:33;13.83;;;12.53;;
19653;SDS011;9975;48.046;7.804;2022-08-19T15:06:00;16.20;;;13.60;;
19653;SDS011;9975;48.046;7.804;2022-08-19T15:08:28;17.37;;;15.37;;
19653;SDS011;9975;48.046;7.804;2022-08-19T15:10:55;20.77;;;14.67;;
19653;SDS011;9975;48.046;7.804;2022-08-19T15:13:30;16.17;;;14.47;;
19653;SDS011;9975;48.046;7.804;2022-08-19T15:15:56;14.60;;;13.20;;
19653;SDS011;9975;48.046;7.804;2022-08-19T15:18:22;15.53;;;14.03;;
19653;SDS011;9975;48.046;7.804;2022-08-19T15:20:48;15.27;;;12.67;;
19653;SDS011;9975;48.046;7.804;2022-08-19T15:23:14;15.43;;;13.83;;
19653;SDS011;9975;48.046;7.804;2022-08-19T15:25:40;14.77;;;13.27;;
19653;SDS011;9975;48.046;7.804;2022-08-19T15:28:07;17.53;;;14.07;;
19653;SDS011;9975;48.046;7.804;2022-08-19T15:30:34;13.43;;;12.20;;
19653;SDS011;9975;48.046;7.804;2022-08-19T15:33:00;16.00;;;14.40;;
19653;SDS011;9975;48.046;7.804;2022-08-19T15:35:25;14.07;;;12.77;;
19653;SDS011;9975;48.046;7.804;2022-08-19T15:37:53;15.23;;;13.63;;
19653;SDS011;9975;48.046;7.804;2022-08-19T15:40:19;13.50;;;12.27;;
19653;SDS011;9975;48.046;7.804;2022-08-19T15:42:46;12.77;;;11.50;;
19653;SDS011;9975;48.046;7.804;2022-08-19T15:45:13;13.27;;;12.07;;
19653;SDS011;9975;48.046;7.804;2022-08-19T15:47:40;12.27;;;11.07;;
19653;SDS011;9975;48.046;7.804;2022-08-19T15:50:06;12.57;;;11.20;;
19653;SDS011;9975;48.046;7.804;2022-08-19T15:52:34;13.37;;;12.07;;
19653;SDS011;9975;48.046;7.804;2022-08-19T15:55:00;13.43;;;12.10;;
19653;SDS011;9975;48.046;7.804;2022-08-19T15:57:27;13.43;;;12.10;;
19653;SDS011;9975;48.046;7.804;2022-08-19T15:59:53;14.20;;;12.77;;
19653;SDS011;9975;48.046;7.804;2022-08-19T16:02:37;14.03;;;12.57;;
19653;SDS011;9975;48.046;7.804;2022-08-19T16:05:22;12.87;;;11.03;;
19653;SDS011;9975;48.046;7.804;2022-08-19T16:08:08;13.07;;;11.77;;
19653;SDS011;9975;48.046;7.804;2022-08-19T16:10:34;13.73;;;12.43;;
19653;SDS011;9975;48.046;7.804;2022-08-19T16:13:03;13.13;;;11.73;;
19653;SDS011;9975;48.046;7.804;2022-08-19T16:15:30;12.47;;;11.23;;
19653;SDS011;9975;48.046;7.804;2022-08-19T16:17:58;13.30;;;10.93;;
19653;SDS011;9975;48.046;7.804;2022-08-19T16:20:28;12.00;;;10.90;;
19653;SDS011;9975;48.046;7.804;2022-08-19T16:22:54;11.50;;;10.37;;
19653;SDS011;9975;48.046;7.804;2022-08-19T16:25:22;13.83;;;12.33;;
19653;SDS011;9975;48.046;7.804;2022-08-19T16:27:51;13.30;;;11.90;;
19653;SDS011;9975;48.046;7.804;2022-08-19T16:30:18;12.67;;;10.67;;
19653;SDS011;9975;48.046;7.804;2022-08-19T16:32:45;13.43;;;11.80;;
19653;SDS011;9975;48.046;7.804;2022-08-19T16:35:11;12.43;;;10.60;;
19653;SDS011;9975;48.046;7.804;2022-08-19T16:37:36;11.57;;;10.53;;
19653;SDS011;9975;48.046;7.804;2022-08-19T16:40:03;12.03;;;10.73;;
19653;SDS011;9975;48.046;7.804;2022-08-19T16:42:33;16.70;;;11.00;;
19653;SDS011;9975;48.046;7.804;2022-08-19T16:44:59;12.27;;;11.03;;
19653;SDS011;9975;48.046;7.804;2022-08-19T16:47:25;11.50;;;10.40;;
19653;SDS011;9975;48.046;7.804;2022-08-19T16:49:50;11.03;;;10.03;;
19653;SDS011;9975;48.046;7.804;2022-08-19T16:52:17;10.40;;;9.37;;
19653;SDS011;9975;48.046;7.804;2022-08-19T16:54:43;10.90;;;9.80;;
19653;SDS011;9975;48.046;7.804;2022-08-19T16:57:09;11.70;;;9.97;;
19653;SDS011;9975;48.046;7.804;2022-08-19T16:59:35;10.90;;;9.80;;
19653;SDS011;9975;48.046;7.804;2022-08-19T17:02:00;11.67;;;9.50;;
19653;SDS011;9975;48.046;7.804;2022-08-19T17:04:27;10.37;;;9.47;;
19653;SDS011;9975;48.046;7.804;2022-08-19T17:06:53;10.70;;;9.60;;